sensor_id;sensor_type;location;lat;lon;timestamp;temperature;humidity
56044;DHT22;41912;51.022;3.664;2023-09-19T18:06:37;18.30;99.90
56044;DHT22;41912;51.022;3.664;2023-09-19T18:09:03;18.00;99.90
56044;DHT22;41912;51.022;3.664;2023-09-19T18:11:32;18.10;99.90
56044;DHT22;41912;51.022;3.664;2023-09-19T18:13:58;18.20;99.90
56044;DHT22;41912;51.022;3.664;2023-09-19T18:16:25;18.40;99.90
56044;DHT22;41912;51.022;3.664;2023-09-19T18:18:53;18.60;99.90
56044;DHT22;41912;51.022;3.664;2023-09-19T18:21:19;18.70;99.90
56044;DHT22;41912;51.022;3.664;2023-09-19T18:23:52;18.80;99.90
56044;DHT22;41912;51.022;3.664;2023-09-19T18:26:18;18.90;99.90
56044;DHT22;41912;51.022;3.664;2023-09-19T18:28:44;19.00;99.90
56044;DHT22;41912;51.022;3.664;2023-09-19T18:31:09;19.10;99.90
56044;DHT22;41912;51.022;3.664;2023-09-19T18:33:35;19.20;99.90
56044;DHT22;41912;51.022;3.664;2023-09-19T18:36:06;19.20;99.90
56044;DHT22;41912;51.022;3.664;2023-09-19T18:38:39;19.30;99.90
56044;DHT22;41912;51.022;3.664;2023-09-19T18:41:09;19.40;99.90
56044;DHT22;41912;51.022;3.664;2023-09-19T18:43:36;19.40;99.90
56044;DHT22;41912;51.022;3.664;2023-09-19T18:46:04;19.40;99.90
56044;DHT22;41912;51.022;3.664;2023-09-19T18:48:31;19.40;99.90
56044;DHT22;41912;51.022;3.664;2023-09-19T18:50:57;19.40;99.90
56044;DHT22;41912;51.022;3.664;2023-09-19T18:53:23;19.50;99.90
56044;DHT22;41912;51.022;3.664;2023-09-19T18:56:02;19.50;99.90
56044;DHT22;41912;51.022;3.664;2023-09-19T18:58:28;19.50;99.90
56044;DHT22;41912;51.022;3.664;2023-09-19T19:01:03;19.50;99.90
56044;DHT22;41912;51.022;3.664;2023-09-19T19:03:29;19.50;99.90
56044;DHT22;41912;51.022;3.664;2023-09-19T19:05:56;19.50;99.90
56044;DHT22;41912;51.022;3.664;2023-09-19T19:08:23;19.60;99.90
56044;DHT22;41912;51.022;3.664;2023-09-19T19:10:49;19.60;99.90
56044;DHT22;41912;51.022;3.664;2023-09-19T19:13:15;19.60;99.90
56044;DHT22;41912;51.022;3.664;2023-09-19T19:15:40;19.60;99.90
56044;DHT22;41912;51.022;3.664;2023-09-19T19:18:06;19.70;99.90
56044;DHT22;41912;51.022;3.664;2023-09-19T19:20:32;19.60;99.90
56044;DHT22;41912;51.022;3.664;2023-09-19T19:22:58;19.60;99.90
56044;DHT22;41912;51.022;3.664;2023-09-19T19:25:23;19.60;99.90
56044;DHT22;41912;51.022;3.664;2023-09-19T19:27:52;19.70;99.90
56044;DHT22;41912;51.022;3.664;2023-09-19T19:30:18;19.70;99.90
56044;DHT22;41912;51.022;3.664;2023-09-19T19:32:44;19.60;99.90
56044;DHT22;41912;51.022;3.664;2023-09-19T19:35:10;19.60;99.90
56044;DHT22;41912;51.022;3.664;2023-09-19T19:37:35;19.60;99.90
56044;DHT22;41912;51.022;3.664;2023-09-19T19:40:02;19.60;99.90
56044;DHT22;41912;51.022;3.664;2023-09-19T19:42:29;19.60;99.90
56044;DHT22;41912;51.022;3.664;2023-09-19T19:44:55;19.60;99.90
56044;DHT22;41912;51.022;3.664;2023-09-19T19:47:21;19.60;99.90
56044;DHT22;41912;51.022;3.664;2023-09-19T19:49:47;19.60;99.90
56044;DHT22;41912;51.022;3.664;2023-09-19T19:52:13;19.60;99.90
56044;DHT22;41912;51.022;3.664;2023-09-19T19:54:39;19.60;99.90
56044;DHT22;41912;51.022;3.664;2023-09-19T19:57:05;19.60;99.90
56044;DHT22;41912;51.022;3.664;2023-09-19T19:59:31;19.70;99.90
56044;DHT22;41912;51.022;3.664;2023-09-19T20:01:56;19.70;99.90
56044;DHT22;41912;51.022;3.664;2023-09-19T20:04:22;19.60;99.90
56044;DHT22;41912;51.022;3.664;2023-09-19T20:06:48;19.60;99.90
56044;DHT22;41912;51.022;3.664;2023-09-19T20:09:15;19.70;99.90
56044;DHT22;41912;51.022;3.664;2023-09-19T20:11:41;19.70;99.90
56044;DHT22;41912;51.022;3.664;2023-09-19T20:14:06;19.70;99.90
56044;DHT22;41912;51.022;3.664;2023-09-19T20:16:33;19.70;99.90
56044;DHT22;41912;51.022;3.664;2023-09-19T20:19:02;19.70;99.90
56044;DHT22;41912;51.022;3.664;2023-09-19T20:21:30;19.70;99.90
56044;DHT22;41912;51.022;3.664;2023-09-19T20:23:55;19.70;99.90
56044;DHT22;41912;51.022;3.664;2023-09-19T20:26:21;19.70;99.90
56044;DHT22;41912;51.022;3.664;2023-09-19T20:28:47;19.70;99.90
56044;DHT22;41912;51.022;3.664;2023-09-19T20:31:13;19.70;99.90
56044;DHT22;41912;51.022;3.664;2023-09-19T20:33:41;19.70;99.90
56044;DHT22;41912;51.022;3.664;2023-09-19T20:36:08;19.70;99.90
56044;DHT22;41912;51.022;3.664;2023-09-19T20:38:35;19.70;99.90
56044;DHT22;41912;51.022;3.664;2023-09-19T20:41:01;19.70;99.90
56044;DHT22;41912;51.022;3.664;2023-09-19T20:43:29;19.70;99.90
56044;DHT22;41912;51.022;3.664;2023-09-19T20:45:55;19.70;99.90
56044;DHT22;41912;51.022;3.664;2023-09-19T20:48:21;19.70;99.90
56044;DHT22;41912;51.022;3.664;2023-09-19T20:50:47;19.70;99.90
56044;DHT22;41912;51.022;3.664;2023-09-19T20:53:12;19.70;99.90
56044;DHT22;41912;51.022;3.664;2023-09-19T20:55:38;19.70;99.90
56044;DHT22;41912;51.022;3.664;2023-09-19T20:58:06;19.80;99.90
56044;DHT22;41912;51.022;3.664;2023-09-19T21:00:32;19.80;99.90
56044;DHT22;41912;51.022;3.664;2023-09-19T21:02:59;19.80;99.90
56044;DHT22;41912;51.022;3.664;2023-09-19T21:05:25;19.80;99.90
56044;DHT22;41912;51.022;3.664;2023-09-19T21:07:51;19.80;99.90
56044;DHT22;41912;51.022;3.664;2023-09-19T21:10:17;19.80;99.90
56044;DHT22;41912;51.022;3.664;2023-09-19T21:12:42;19.80;99.90
56044;DHT22;41912;51.022;3.664;2023-09-19T21:15:08;19.80;99.90
56044;DHT22;41912;51.022;3.664;2023-09-19T21:17:34;19.70;99.90
56044;DHT22;41912;51.022;3.664;2023-09-19T21:20:11;19.80;99.90
56044;DHT22;41912;51.022;3.664;2023-09-19T21:22:39;19.70;99.90
56044;DHT22;41912;51.022;3.664;2023-09-19T21:25:05;19.70;99.90
56044;DHT22;41912;51.022;3.664;2023-09-19T21:27:33;19.80;99.90
56044;DHT22;41912;51.022;3.664;2023-09-19T21:29:59;19.80;99.90
56044;DHT22;41912;51.022;3.664;2023-09-19T21:32:25;19.80;99.90
56044;DHT22;41912;51.022;3.664;2023-09-19T21:34:51;19.80;99.90
56044;DHT22;41912;51.022;3.664;2023-09-19T21:37:16;19.70;99.90
56044;DHT22;41912;51.022;3.664;2023-09-19T21:39:42;19.80;99.90
56044;DHT22;41912;51.022;3.664;2023-09-19T21:42:08;19.80;99.90
56044;DHT22;41912;51.022;3.664;2023-09-19T21:44:34;19.70;99.90
56044;DHT22;41912;51.022;3.664;2023-09-19T21:46:59;19.80;99.90
56044;DHT22;41912;51.022;3.664;2023-09-19T21:49:28;19.80;99.90
56044;DHT22;41912;51.022;3.664;2023-09-19T21:51:53;19.80;99.90
56044;DHT22;41912;51.022;3.664;2023-09-19T21:54:19;19.80;99.90
56044;DHT22;41912;51.022;3.664;2023-09-19T21:56:45;19.80;99.90
56044;DHT22;41912;51.022;3.664;2023-09-19T21:59:13;19.80;99.90
56044;DHT22;41912;51.022;3.664;2023-09-19T22:01:40;19.80;99.90
56044;DHT22;41912;51.022;3.664;2023-09-19T22:04:06;19.80;99.90
56044;DHT22;41912;51.022;3.664;2023-09-19T22:06:35;19.70;99.90
56044;DHT22;41912;51.022;3.664;2023-09-19T22:09:02;19.70;99.90
56044;DHT22;41912;51.022;3.664;2023-09-19T22:11:29;19.70;99.90
56044;DHT22;41912;51.022;3.664;2023-09-19T22:13:55;19.70;99.90
56044;DHT22;41912;51.022;3.664;2023-09-19T22:16:21;19.70;99.90
56044;DHT22;41912;51.022;3.664;2023-09-19T22:18:47;19.70;99.90
56044;DHT22;41912;51.022;3.664;2023-09-19T22:21:16;19.70;99.90
56044;DHT22;41912;51.022;3.664;2023-09-19T22:23:48;19.70;99.90
56044;DHT22;41912;51.022;3.664;2023-09-19T22:26:16;19.70;99.90
56044;DHT22;41912;51.022;3.664;2023-09-19T22:28:48;19.70;99.90
56044;DHT22;41912;51.022;3.664;2023-09-19T22:31:17;19.70;99.90
56044;DHT22;41912;51.022;3.664;2023-09-19T22:33:46;19.70;99.90
56044;DHT22;41912;51.022;3.664;2023-09-19T22:36:16;19.80;99.90
56044;DHT22;41912;51.022;3.664;2023-09-19T22:38:41;19.80;99.90
56044;DHT22;41912;51.022;3.664;2023-09-19T22:41:08;19.70;99.90
56044;DHT22;41912;51.022;3.664;2023-09-19T22:43:38;19.80;99.90
56044;DHT22;41912;51.022;3.664;2023-09-19T22:46:14;19.80;99.90
56044;DHT22;41912;51.022;3.664;2023-09-19T22:48:43;19.70;99.90
56044;DHT22;41912;51.022;3.664;2023-09-19T22:51:11;19.70;99.90
56044;DHT22;41912;51.022;3.664;2023-09-19T22:53:39;19.70;99.90
56044;DHT22;41912;51.022;3.664;2023-09-19T22:56:12;19.80;99.90
56044;DHT22;41912;51.022;3.664;2023-09-19T22:58:42;19.70;99.90
56044;DHT22;41912;51.022;3.664;2023-09-19T23:01:14;19.70;99.90
56044;DHT22;41912;51.022;3.664;2023-09-19T23:03:44;19.70;99.90
56044;DHT22;41912;51.022;3.664;2023-09-19T23:06:20;19.70;99.90
56044;DHT22;41912;51.022;3.664;2023-09-19T23:08:51;19.70;99.90
56044;DHT22;41912;51.022;3.664;2023-09-19T23:11:20;19.60;99.90
56044;DHT22;41912;51.022;3.664;2023-09-19T23:13:51;19.60;99.90
56044;DHT22;41912;51.022;3.664;2023-09-19T23:16:18;19.60;99.90
56044;DHT22;41912;51.022;3.664;2023-09-19T23:18:57;19.60;99.90
56044;DHT22;41912;51.022;3.664;2023-09-19T23:21:26;19.60;99.90
56044;DHT22;41912;51.022;3.664;2023-09-19T23:23:56;19.60;99.90
56044;DHT22;41912;51.022;3.664;2023-09-19T23:26:23;19.60;99.90
56044;DHT22;41912;51.022;3.664;2023-09-19T23:28:50;19.60;99.90
56044;DHT22;41912;51.022;3.664;2023-09-19T23:31:17;19.60;99.90
56044;DHT22;41912;51.022;3.664;2023-09-19T23:33:45;19.60;99.90
56044;DHT22;41912;51.022;3.664;2023-09-19T23:36:11;19.60;99.90
56044;DHT22;41912;51.022;3.664;2023-09-19T23:38:37;19.60;99.90
56044;DHT22;41912;51.022;3.664;2023-09-19T23:41:07;19.50;99.90
56044;DHT22;41912;51.022;3.664;2023-09-19T23:43:40;19.60;99.90
56044;DHT22;41912;51.022;3.664;2023-09-19T23:46:07;19.60;99.90
56044;DHT22;41912;51.022;3.664;2023-09-19T23:48:33;19.60;99.90
56044;DHT22;41912;51.022;3.664;2023-09-19T23:51:00;19.50;99.90
56044;DHT22;41912;51.022;3.664;2023-09-19T23:53:29;19.50;99.90
56044;DHT22;41912;51.022;3.664;2023-09-19T23:55:55;19.60;99.90
56044;DHT22;41912;51.022;3.664;2023-09-19T23:58:22;19.60;99.90
